createdAt,value
2018-11-25T00:01:50.331Z,23.00
2018-11-25T00:04:22.449Z,23.00
2018-11-25T00:06:56.644Z,23.00
2018-11-25T00:09:31.572Z,23.00
2018-11-25T00:12:03.962Z,23.00
2018-11-25T00:14:37.941Z,23.00
2018-11-25T00:17:10.181Z,23.00
2018-11-25T00:19:44.214Z,23.10
2018-11-25T00:22:17.015Z,23.00
2018-11-25T00:24:49.786Z,23.00
2018-11-25T00:27:23.282Z,23.00
2018-11-25T00:29:57.397Z,23.00
2018-11-25T00:32:30.083Z,23.00
2018-11-25T00:35:02.372Z,23.00
2018-11-25T00:37:35.551Z,23.00
2018-11-25T00:40:08.125Z,23.00
2018-11-25T00:42:42.310Z,23.00
2018-11-25T00:45:21.222Z,23.00
2018-11-25T00:47:54.238Z,23.00
2018-11-25T00:50:28.410Z,23.00
2018-11-25T00:53:01.141Z,23.00
2018-11-25T00:55:34.541Z,23.00
2018-11-25T00:58:08.403Z,23.00
2018-11-25T01:00:42.977Z,23.00
2018-11-25T01:03:16.569Z,23.00
2018-11-25T01:05:50.440Z,23.00
2018-11-25T01:08:22.374Z,23.00
2018-11-25T01:10:53.538Z,23.00
2018-11-25T01:13:27.176Z,23.00
2018-11-25T01:15:59.694Z,23.00
2018-11-25T01:18:31.505Z,23.00
2018-11-25T01:21:03.931Z,23.00
2018-11-25T01:23:37.226Z,23.00
2018-11-25T01:26:10.145Z,23.00
2018-11-25T01:28:42.561Z,23.00
2018-11-25T01:31:16.701Z,23.00
2018-11-25T01:33:51.328Z,23.00
2018-11-25T01:36:22.521Z,23.00
2018-11-25T01:38:55.577Z,22.90
2018-11-25T01:41:28.107Z,23.00
2018-11-25T01:44:01.086Z,22.90
2018-11-25T01:46:34.160Z,23.00
2018-11-25T01:49:07.542Z,23.00
2018-11-25T01:51:39.970Z,23.00
2018-11-25T01:54:13.144Z,23.00
2018-11-25T01:56:47.253Z,23.00
2018-11-25T01:59:21.059Z,23.00
2018-11-25T02:01:53.515Z,23.00
2018-11-25T02:04:27.484Z,23.00
2018-11-25T02:07:00.797Z,23.00
2018-11-25T02:09:36.317Z,23.00
2018-11-25T02:12:10.208Z,23.00
2018-11-25T02:14:44.338Z,23.00
2018-11-25T02:17:17.353Z,22.90
2018-11-25T02:19:49.317Z,22.90
2018-11-25T02:22:21.402Z,22.90
2018-11-25T02:24:55.025Z,23.00
2018-11-25T02:27:28.082Z,22.90
2018-11-25T02:30:00.305Z,23.00
2018-11-25T02:32:32.639Z,22.90
2018-11-25T02:35:05.977Z,22.90
2018-11-25T02:37:38.621Z,22.90
2018-11-25T02:40:15.960Z,22.90
2018-11-25T02:42:51.650Z,23.00
2018-11-25T02:45:24.576Z,22.90
2018-11-25T02:47:57.990Z,22.90
2018-11-25T02:50:33.132Z,22.90
2018-11-25T02:53:13.705Z,22.90
2018-11-25T02:55:46.465Z,22.90
2018-11-25T02:58:20.960Z,22.90
2018-11-25T03:00:55.545Z,22.90
2018-11-25T03:03:30.577Z,22.90
2018-11-25T03:06:03.517Z,22.90
2018-11-25T03:08:35.394Z,22.90
2018-11-25T03:11:07.749Z,22.90
2018-11-25T03:13:40.753Z,22.90
2018-11-25T03:16:20.826Z,22.90
2018-11-25T03:18:53.259Z,22.90
2018-11-25T03:21:25.210Z,22.90
2018-11-25T03:23:57.826Z,22.90
2018-11-25T03:26:35.845Z,22.90
2018-11-25T03:29:08.314Z,22.90
2018-11-25T03:31:44.601Z,22.90
2018-11-25T03:34:16.693Z,22.90
2018-11-25T03:36:50.164Z,22.90
2018-11-25T03:39:23.621Z,22.90
2018-11-25T03:41:56.636Z,22.90
2018-11-25T03:44:28.959Z,22.90
2018-11-25T03:47:03.176Z,22.90
2018-11-25T03:49:38.486Z,22.90
2018-11-25T03:52:10.366Z,22.90
2018-11-25T03:54:48.584Z,23.00
2018-11-25T03:57:20.364Z,23.00
2018-11-25T03:59:53.917Z,23.00
2018-11-25T04:02:26.194Z,23.10
2018-11-25T04:04:58.407Z,23.00
2018-11-25T04:07:29.608Z,23.10
2018-11-25T04:10:01.961Z,23.10
2018-11-25T04:12:35.252Z,23.10
2018-11-25T04:15:07.166Z,23.10
2018-11-25T04:17:42.240Z,23.10
2018-11-25T04:20:15.636Z,23.10
2018-11-25T04:22:51.679Z,23.10
2018-11-25T04:25:25.923Z,23.10
2018-11-25T04:27:58.775Z,23.10
2018-11-25T04:30:31.756Z,23.10
2018-11-25T04:33:04.804Z,23.20
2018-11-25T04:35:37.864Z,23.10
2018-11-25T04:38:11.817Z,23.20
2018-11-25T04:40:44.148Z,23.20
2018-11-25T04:43:15.646Z,23.10
2018-11-25T04:45:47.364Z,23.10
2018-11-25T04:48:20.419Z,23.10
2018-11-25T04:50:54.420Z,23.10
2018-11-25T04:53:27.686Z,23.10
2018-11-25T04:56:00.612Z,23.10
2018-11-25T04:58:32.105Z,23.10
2018-11-25T05:01:03.803Z,23.10
2018-11-25T05:03:37.000Z,23.10
2018-11-25T05:06:09.904Z,23.10
2018-11-25T05:08:43.389Z,23.10
2018-11-25T05:11:17.495Z,23.00
2018-11-25T05:13:52.173Z,23.10
2018-11-25T05:16:25.578Z,23.10
2018-11-25T05:18:57.516Z,23.10
2018-11-25T05:21:30.317Z,23.10
2018-11-25T05:24:02.644Z,23.10
2018-11-25T05:26:35.293Z,23.10
2018-11-25T05:29:07.489Z,23.00
2018-11-25T05:31:40.652Z,23.10
2018-11-25T05:34:12.885Z,23.10
2018-11-25T05:36:45.081Z,23.10
2018-11-25T05:39:18.625Z,23.10
2018-11-25T05:41:51.902Z,23.10
2018-11-25T05:44:25.386Z,23.10
2018-11-25T05:46:59.089Z,23.10
2018-11-25T05:49:36.342Z,23.00
2018-11-25T05:52:03.780Z,23.00
2018-11-25T05:54:39.703Z,23.10
2018-11-25T05:57:11.961Z,23.10
2018-11-25T05:59:48.288Z,23.10
2018-11-25T06:02:22.858Z,23.10
2018-11-25T06:04:58.523Z,23.10
2018-11-25T06:07:31.749Z,23.10
2018-11-25T06:10:04.105Z,23.10
2018-11-25T06:12:36.673Z,23.10
2018-11-25T06:15:12.296Z,23.10
2018-11-25T06:17:46.500Z,23.10
2018-11-25T06:20:21.565Z,23.10
2018-11-25T06:22:53.179Z,23.10
2018-11-25T06:25:26.012Z,23.10
2018-11-25T06:27:59.938Z,23.10
2018-11-25T06:30:32.704Z,23.00
2018-11-25T06:33:06.510Z,23.00
2018-11-25T06:35:40.684Z,23.00
2018-11-25T06:38:13.265Z,23.10
2018-11-25T06:40:49.355Z,23.00
2018-11-25T06:43:31.075Z,23.00
2018-11-25T06:46:02.092Z,23.10
2018-11-25T06:48:32.587Z,23.20
2018-11-25T06:51:03.088Z,23.20
2018-11-25T06:53:33.590Z,23.30
2018-11-25T06:56:04.090Z,23.30
2018-11-25T06:58:34.623Z,23.30
2018-11-25T07:01:05.036Z,23.40
2018-11-25T07:03:35.529Z,23.30
2018-11-25T07:06:06.173Z,23.30
2018-11-25T07:08:36.852Z,23.30
2018-11-25T07:11:07.380Z,23.40
2018-11-25T07:13:37.794Z,23.40
2018-11-25T07:16:08.925Z,23.40
2018-11-25T07:18:39.509Z,23.40
2018-11-25T07:21:10.054Z,23.40
2018-11-25T07:23:40.585Z,23.40
2018-11-25T07:26:11.240Z,23.50
2018-11-25T07:28:41.688Z,23.50
2018-11-25T07:31:12.140Z,23.50
2018-11-25T07:33:42.598Z,23.50
2018-11-25T07:36:13.019Z,23.50
2018-11-25T07:38:43.423Z,23.50
2018-11-25T07:41:13.992Z,23.50
2018-11-25T07:43:44.363Z,23.50
2018-11-25T07:46:14.799Z,23.50
2018-11-25T07:48:45.429Z,23.40
2018-11-25T07:51:15.990Z,23.50
2018-11-25T07:53:46.460Z,23.40
2018-11-25T07:56:17.806Z,23.40
2018-11-25T07:58:48.365Z,23.40
2018-11-25T08:01:18.967Z,23.40
2018-11-25T08:03:49.473Z,23.40
2018-11-25T08:06:20.247Z,23.30
2018-11-25T08:08:50.825Z,23.30
2018-11-25T08:11:21.290Z,23.30
2018-11-25T08:13:51.939Z,23.30
2018-11-25T08:16:22.501Z,23.30
2018-11-25T08:18:53.015Z,23.30
2018-11-25T08:21:23.448Z,23.30
2018-11-25T08:23:54.009Z,23.30
2018-11-25T08:26:24.557Z,23.30
2018-11-25T08:29:14.443Z,23.30
2018-11-25T08:31:45.056Z,23.30
2018-11-25T08:34:15.580Z,23.30
2018-11-25T08:36:46.077Z,23.30
2018-11-25T08:39:16.618Z,23.30
2018-11-25T08:41:47.176Z,23.30
2018-11-25T08:44:17.844Z,23.30
2018-11-25T08:46:48.227Z,23.30
2018-11-25T08:49:18.816Z,23.30
2018-11-25T08:51:49.320Z,23.30
2018-11-25T08:54:19.851Z,23.30
2018-11-25T08:56:50.419Z,23.30
2018-11-25T08:59:20.951Z,23.30
2018-11-25T09:01:51.518Z,23.30
2018-11-25T09:04:22.072Z,23.30
2018-11-25T09:06:52.715Z,23.30
2018-11-25T09:09:23.171Z,23.30
2018-11-25T09:11:53.599Z,23.30
2018-11-25T09:14:24.016Z,23.30
2018-11-25T09:16:54.659Z,23.30
2018-11-25T09:19:25.121Z,23.30
2018-11-25T09:21:55.482Z,23.30
2018-11-25T09:24:26.003Z,23.30
2018-11-25T09:26:56.547Z,23.30
2018-11-25T09:29:27.108Z,23.30
2018-11-25T09:34:24.018Z,23.40
2018-11-25T09:36:54.532Z,23.40
2018-11-25T09:39:25.784Z,23.50
2018-11-25T09:41:56.250Z,23.50
2018-11-25T09:44:26.714Z,23.50
2018-11-25T09:46:57.147Z,23.50
2018-11-25T09:49:27.603Z,23.50
2018-11-25T09:51:58.028Z,23.50
2018-11-25T09:54:28.572Z,23.50
2018-11-25T09:56:58.984Z,23.40
2018-11-25T09:59:29.475Z,23.40
2018-11-25T10:01:59.886Z,23.40
2018-11-25T10:04:30.258Z,23.40
2018-11-25T10:07:00.898Z,23.40
2018-11-25T10:09:31.519Z,23.40
2018-11-25T10:12:02.069Z,23.40
2018-11-25T10:14:32.617Z,23.40
2018-11-25T10:17:03.389Z,23.40
2018-11-25T10:19:33.903Z,23.40
2018-11-25T10:22:04.278Z,23.40
2018-11-25T10:24:34.833Z,23.40
2018-11-25T10:27:05.211Z,23.40
2018-11-25T10:29:35.798Z,23.40
2018-11-25T10:32:06.553Z,23.40
2018-11-25T10:34:37.060Z,23.40
2018-11-25T10:37:07.538Z,23.40
2018-11-25T10:39:38.098Z,23.40
2018-11-25T10:42:08.525Z,23.40
2018-11-25T10:44:38.942Z,23.40
2018-11-25T10:47:09.603Z,23.40
2018-11-25T10:49:40.164Z,23.40
2018-11-25T10:52:10.588Z,23.40
2018-11-25T10:54:41.119Z,23.40
2018-11-25T10:57:11.571Z,23.40
2018-11-25T10:59:42.274Z,23.40
2018-11-25T11:02:40.066Z,23.30
2018-11-25T11:05:11.248Z,23.30
2018-11-25T11:07:47.795Z,23.30
2018-11-25T11:10:18.181Z,23.30
2018-11-25T11:12:48.764Z,23.30
2018-11-25T11:15:19.131Z,23.30
2018-11-25T11:17:49.744Z,23.20
2018-11-25T11:20:20.405Z,23.20
2018-11-25T11:22:50.957Z,23.20
2018-11-25T11:25:21.406Z,23.30
2018-11-25T11:27:52.114Z,23.30
2018-11-25T11:30:22.700Z,23.30
2018-11-25T11:32:53.592Z,23.30
2018-11-25T11:35:24.225Z,23.30
2018-11-25T11:37:54.575Z,23.30
2018-11-25T11:40:24.989Z,23.30
2018-11-25T11:42:55.373Z,21.00
2018-11-25T11:45:25.936Z,19.90
2018-11-25T11:47:56.406Z,20.10
2018-11-25T11:50:28.693Z,21.00
2018-11-25T11:52:59.134Z,21.60
2018-11-25T11:55:29.780Z,21.90
2018-11-25T11:58:00.234Z,22.20
2018-11-25T12:00:31.783Z,22.30
2018-11-25T12:03:03.185Z,22.50
2018-11-25T12:05:33.582Z,22.70
2018-11-25T12:08:04.065Z,22.70
2018-11-25T12:10:34.441Z,22.90
2018-11-25T12:13:04.913Z,22.90
2018-11-25T12:15:35.325Z,22.90
2018-11-25T12:18:05.903Z,23.00
2018-11-25T12:20:36.350Z,23.00
2018-11-25T12:23:07.613Z,23.10
2018-11-25T12:25:38.072Z,23.10
2018-11-25T12:28:08.905Z,23.10
2018-11-25T12:30:39.467Z,23.10
2018-11-25T12:33:09.960Z,23.10
2018-11-25T12:35:40.665Z,23.10
2018-11-25T12:38:11.045Z,23.10
2018-11-25T12:40:41.542Z,23.10
2018-11-25T12:43:11.962Z,23.10
2018-11-25T12:45:42.551Z,23.20
2018-11-25T12:48:12.953Z,23.10
2018-11-25T12:50:43.497Z,23.10
2018-11-25T12:53:13.944Z,23.20
2018-11-25T12:55:44.391Z,23.20
2018-11-25T12:58:14.976Z,23.20
2018-11-25T13:00:46.929Z,23.20
2018-11-25T13:03:17.585Z,23.20
2018-11-25T13:05:48.035Z,23.20
2018-11-25T13:08:18.472Z,23.20
2018-11-25T13:10:48.919Z,23.20
2018-11-25T13:13:19.354Z,23.20
2018-11-25T13:15:49.820Z,23.20
2018-11-25T13:18:20.343Z,23.20
2018-11-25T13:20:50.945Z,23.20
2018-11-25T13:23:21.532Z,23.20
2018-11-25T13:25:51.964Z,23.20
2018-11-25T13:28:22.458Z,23.20
2018-11-25T13:30:52.849Z,23.20
2018-11-25T13:33:23.410Z,23.20
2018-11-25T13:35:54.098Z,23.20
2018-11-25T13:38:24.605Z,23.20
2018-11-25T13:40:55.057Z,23.20
2018-11-25T13:43:25.488Z,23.20
2018-11-25T13:45:56.015Z,23.20
2018-11-25T13:48:26.645Z,23.20
2018-11-25T13:51:06.752Z,23.30
2018-11-25T13:53:37.386Z,23.40
2018-11-25T13:56:08.337Z,23.40
2018-11-25T13:58:38.893Z,23.40
2018-11-25T14:01:09.372Z,23.40
2018-11-25T14:03:41.734Z,23.40
2018-11-25T14:06:14.103Z,23.50
2018-11-25T14:08:45.658Z,23.50
2018-11-25T14:11:16.633Z,23.50
2018-11-25T14:13:47.314Z,23.50
2018-11-25T14:16:21.962Z,23.50
2018-11-25T14:18:52.479Z,23.50
2018-11-25T14:21:22.919Z,23.60
2018-11-25T14:23:53.435Z,23.60
2018-11-25T14:26:26.025Z,23.60
2018-11-25T14:28:56.554Z,23.60
2018-11-25T14:31:27.029Z,23.60
2018-11-25T14:33:57.486Z,23.60
2018-11-25T14:36:28.025Z,23.70
2018-11-25T14:38:58.779Z,23.70
2018-11-25T14:41:29.191Z,23.70
2018-11-25T14:43:59.789Z,23.70
2018-11-25T14:46:30.225Z,23.70
2018-11-25T14:49:00.818Z,23.70
2018-11-25T14:51:31.277Z,23.70
2018-11-25T14:54:01.757Z,23.70
2018-11-25T14:56:32.222Z,23.60
2018-11-25T14:59:02.741Z,23.60
2018-11-25T15:01:33.192Z,23.50
2018-11-25T15:04:03.714Z,23.40
2018-11-25T15:06:34.289Z,23.50
2018-11-25T15:09:05.594Z,23.50
2018-11-25T15:11:36.188Z,23.50
2018-11-25T15:14:07.125Z,23.50
2018-11-25T15:16:37.928Z,23.50
2018-11-25T15:19:08.848Z,23.60
2018-11-25T15:21:39.474Z,23.50
2018-11-25T15:24:10.787Z,23.50
2018-11-25T15:26:41.261Z,23.50
2018-11-25T15:29:11.856Z,23.50
2018-11-25T15:31:42.286Z,23.50
2018-11-25T15:34:12.942Z,23.60
2018-11-25T15:36:43.391Z,23.50
2018-11-25T15:39:14.244Z,23.50
2018-11-25T15:41:44.891Z,23.60
2018-11-25T15:44:18.348Z,23.50
2018-11-25T15:46:48.818Z,23.50
2018-11-25T15:49:19.229Z,23.50
2018-11-25T15:51:49.612Z,23.50
2018-11-25T15:54:20.264Z,23.50
2018-11-25T15:56:50.912Z,23.50
2018-11-25T15:59:21.470Z,23.50
2018-11-25T16:01:51.899Z,23.60
2018-11-25T16:04:22.307Z,23.50
2018-11-25T16:06:53.027Z,23.50
2018-11-25T16:09:23.411Z,23.50
2018-11-25T16:11:54.046Z,23.50
2018-11-25T16:14:24.512Z,23.50
2018-11-25T16:16:54.909Z,23.50
2018-11-25T16:19:25.332Z,23.60
2018-11-25T16:21:55.758Z,23.50
2018-11-25T16:24:26.520Z,23.50
2018-11-25T16:26:56.835Z,23.50
2018-11-25T16:29:28.545Z,23.50
2018-11-25T16:31:58.937Z,23.50
2018-11-25T16:34:29.527Z,23.50
2018-11-25T16:36:59.868Z,23.50
2018-11-25T16:39:30.283Z,23.50
2018-11-25T16:42:00.824Z,23.50
2018-11-25T16:44:31.246Z,23.50
2018-11-25T16:47:01.835Z,23.50
2018-11-25T16:49:33.340Z,23.50
2018-11-25T16:52:03.633Z,23.50
2018-11-25T16:54:34.021Z,23.50
2018-11-25T16:57:04.629Z,23.50
2018-11-25T16:59:35.263Z,23.50
2018-11-25T17:02:05.819Z,23.50
2018-11-25T17:04:37.048Z,23.50
2018-11-25T17:07:08.024Z,23.60
2018-11-25T17:09:38.684Z,23.50
2018-11-25T17:12:09.229Z,23.50
2018-11-25T17:14:39.753Z,23.50
2018-11-25T17:17:10.336Z,23.50
2018-11-25T17:19:40.631Z,23.50
2018-11-25T17:22:16.408Z,23.50
2018-11-25T17:24:42.581Z,23.50
2018-11-25T17:27:12.972Z,23.50
2018-11-25T17:29:43.470Z,23.50
2018-11-25T17:32:13.797Z,23.50
2018-11-25T17:34:44.262Z,23.50
2018-11-25T17:37:14.707Z,23.60
2018-11-25T17:39:45.129Z,23.50
2018-11-25T17:42:15.664Z,23.50
2018-11-25T17:44:46.348Z,23.50
2018-11-25T17:47:16.666Z,23.50
2018-11-25T17:49:47.092Z,23.50
2018-11-25T17:52:17.471Z,23.50
2018-11-25T17:54:48.059Z,23.50
2018-11-25T17:57:18.645Z,23.50
2018-11-25T17:59:49.276Z,23.60
2018-11-25T18:02:19.811Z,23.60
2018-11-25T18:04:50.391Z,23.60
2018-11-25T18:07:21.009Z,23.60
2018-11-25T18:09:51.697Z,23.60
2018-11-25T18:12:22.127Z,23.60
2018-11-25T18:14:52.676Z,23.70
2018-11-25T18:17:23.135Z,23.70
2018-11-25T18:19:53.562Z,23.70
2018-11-25T18:22:26.605Z,23.70
2018-11-25T18:24:57.006Z,23.70
2018-11-25T18:27:27.418Z,23.70
2018-11-25T18:29:57.897Z,23.70
2018-11-25T18:32:28.665Z,23.70
2018-11-25T18:34:59.381Z,23.70
2018-11-25T18:37:29.836Z,23.70
2018-11-25T18:40:00.424Z,23.70
2018-11-25T18:42:31.015Z,23.70
2018-11-25T18:45:01.434Z,23.70
2018-11-25T18:47:31.996Z,23.70
2018-11-25T18:50:02.487Z,23.70
2018-11-25T18:52:33.005Z,23.70
2018-11-25T18:55:01.212Z,23.60
2018-11-25T18:57:31.746Z,23.60
2018-11-25T19:00:02.283Z,23.60
2018-11-25T19:02:45.600Z,23.60
2018-11-25T19:05:15.997Z,23.60
2018-11-25T19:07:46.499Z,23.60
2018-11-25T19:10:20.766Z,23.60
2018-11-25T19:12:51.463Z,23.60
2018-11-25T19:15:22.337Z,23.70
2018-11-25T19:17:52.696Z,23.70
2018-11-25T19:20:31.020Z,23.70
2018-11-25T19:23:01.766Z,23.70
2018-11-25T19:25:32.310Z,23.70
2018-11-25T19:28:02.750Z,23.70
2018-11-25T19:30:33.321Z,23.70
2018-11-25T19:33:03.817Z,23.70
2018-11-25T19:35:34.498Z,23.70
2018-11-25T19:38:05.576Z,23.70
2018-11-25T19:40:36.120Z,23.70
2018-11-25T19:43:07.454Z,23.70
2018-11-25T19:45:38.074Z,23.70
2018-11-25T19:48:08.547Z,23.70
2018-11-25T19:50:40.106Z,23.70
2018-11-25T19:53:11.601Z,23.70
2018-11-25T19:55:42.940Z,23.70
2018-11-25T19:58:13.314Z,23.70
2018-11-25T20:00:43.792Z,23.70
2018-11-25T20:03:14.246Z,23.70
2018-11-25T20:05:44.701Z,23.80
2018-11-25T20:08:15.374Z,23.80
2018-11-25T20:10:45.900Z,23.80
2018-11-25T20:13:16.474Z,23.80
2018-11-25T20:15:47.142Z,23.80
2018-11-25T20:18:17.662Z,23.80
2018-11-25T20:21:05.046Z,23.80
2018-11-25T20:23:35.558Z,23.80
2018-11-25T20:26:05.977Z,23.80
2018-11-25T20:28:36.427Z,23.80
2018-11-25T20:31:07.094Z,23.80
2018-11-25T20:33:52.206Z,23.90
2018-11-25T20:36:19.991Z,23.90
2018-11-25T20:39:07.981Z,23.90
2018-11-25T20:41:38.492Z,23.90
2018-11-25T20:44:08.944Z,23.80
2018-11-25T20:46:57.788Z,23.70
2018-11-25T20:49:28.032Z,23.70
2018-11-25T20:52:15.621Z,23.60
2018-11-25T20:54:46.074Z,23.60
2018-11-25T20:57:16.508Z,23.60
2018-11-25T20:59:46.934Z,23.60
2018-11-25T21:02:20.469Z,23.60
2018-11-25T21:04:48.533Z,23.50
2018-11-25T21:07:19.206Z,23.50
2018-11-25T21:09:49.636Z,23.50
2018-11-25T21:12:20.171Z,23.50
2018-11-25T21:14:50.625Z,23.50
2018-11-25T21:17:21.146Z,23.50
2018-11-25T21:19:51.602Z,23.50
2018-11-25T21:22:22.046Z,23.50
2018-11-25T21:24:52.585Z,23.50
2018-11-25T21:27:23.120Z,23.50
2018-11-25T21:29:53.573Z,23.50
2018-11-25T21:32:24.215Z,23.50
2018-11-25T21:34:54.805Z,23.50
2018-11-25T21:37:25.387Z,23.50
2018-11-25T21:39:55.826Z,23.50
2018-11-25T21:42:26.290Z,23.50
2018-11-25T21:44:56.740Z,23.40
2018-11-25T21:47:29.228Z,23.50
2018-11-25T21:49:59.893Z,23.40
2018-11-25T21:52:30.442Z,23.50
2018-11-25T21:55:00.875Z,23.40
2018-11-25T21:57:31.398Z,23.40
2018-11-25T22:00:01.979Z,23.50
2018-11-25T22:02:32.315Z,23.40
2018-11-25T22:05:02.705Z,23.40
2018-11-25T22:07:33.014Z,23.40
2018-11-25T22:10:03.618Z,23.40
2018-11-25T22:12:34.189Z,23.40
2018-11-25T22:15:04.845Z,23.40
2018-11-25T22:17:35.469Z,23.40
2018-11-25T22:20:07.506Z,23.40
2018-11-25T22:22:38.016Z,23.40
2018-11-25T22:25:26.552Z,23.40
2018-11-25T22:27:57.229Z,23.40
2018-11-25T22:30:27.603Z,23.40
2018-11-25T22:32:58.197Z,23.40
2018-11-25T22:35:28.776Z,23.40
2018-11-25T22:37:59.183Z,23.40
2018-11-25T22:40:29.593Z,23.40
2018-11-25T22:43:00.268Z,23.40
2018-11-25T22:45:30.699Z,23.40
2018-11-25T22:48:01.238Z,23.40
2018-11-25T22:50:31.714Z,23.40
2018-11-25T22:53:02.137Z,23.40
2018-11-25T22:55:32.624Z,23.40
2018-11-25T22:58:03.033Z,23.40
2018-11-25T23:00:35.751Z,23.30
2018-11-25T23:03:06.399Z,23.30
2018-11-25T23:06:12.484Z,23.30
2018-11-25T23:08:43.055Z,23.30
2018-11-25T23:11:13.583Z,23.30
2018-11-25T23:13:44.052Z,23.30
2018-11-25T23:16:14.467Z,23.30
2018-11-25T23:18:44.881Z,23.30
2018-11-25T23:21:15.255Z,23.30
2018-11-25T23:23:45.841Z,23.20
2018-11-25T23:26:16.138Z,23.20
2018-11-25T23:28:46.731Z,23.20
2018-11-25T23:31:17.133Z,23.30
2018-11-25T23:33:47.528Z,23.20
2018-11-25T23:36:18.140Z,23.20
2018-11-25T23:38:48.651Z,23.20
2018-11-25T23:41:19.035Z,23.20
2018-11-25T23:43:49.595Z,23.20
2018-11-25T23:46:20.156Z,23.20
2018-11-25T23:48:50.501Z,23.20
2018-11-25T23:51:20.914Z,23.20
2018-11-25T23:53:51.491Z,23.20
2018-11-25T23:56:22.058Z,23.20
2018-11-25T23:58:52.531Z,23.20
